sensor_id;sensor_type;location;lat;lon;timestamp;temperature;humidity
51035;DHT22;37062;52.546;13.230;2023-02-04T00:00:30;5.10;99.90
51035;DHT22;37062;52.546;13.230;2023-02-04T00:03:03;5.10;99.90
51035;DHT22;37062;52.546;13.230;2023-02-04T00:05:32;5.20;99.90
51035;DHT22;37062;52.546;13.230;2023-02-04T00:08:00;5.20;99.90
51035;DHT22;37062;52.546;13.230;2023-02-04T00:10:31;5.20;99.90
51035;DHT22;37062;52.546;13.230;2023-02-04T00:13:00;5.10;99.90
51035;DHT22;37062;52.546;13.230;2023-02-04T00:15:29;5.00;99.90
51035;DHT22;37062;52.546;13.230;2023-02-04T00:17:58;5.10;99.90
51035;DHT22;37062;52.546;13.230;2023-02-04T00:20:26;5.20;99.90
51035;DHT22;37062;52.546;13.230;2023-02-04T00:22:54;5.20;99.90
51035;DHT22;37062;52.546;13.230;2023-02-04T00:25:23;5.10;99.90
51035;DHT22;37062;52.546;13.230;2023-02-04T00:27:52;5.10;99.90
51035;DHT22;37062;52.546;13.230;2023-02-04T00:30:20;5.10;99.90
51035;DHT22;37062;52.546;13.230;2023-02-04T00:32:48;5.10;99.90
51035;DHT22;37062;52.546;13.230;2023-02-04T00:35:20;5.10;99.90
51035;DHT22;37062;52.546;13.230;2023-02-04T00:37:48;5.10;99.90
51035;DHT22;37062;52.546;13.230;2023-02-04T00:40:17;5.10;99.90
51035;DHT22;37062;52.546;13.230;2023-02-04T00:42:45;5.00;99.90
51035;DHT22;37062;52.546;13.230;2023-02-04T00:45:15;5.00;99.90
51035;DHT22;37062;52.546;13.230;2023-02-04T00:47:43;5.00;99.90
51035;DHT22;37062;52.546;13.230;2023-02-04T00:50:11;5.00;99.90
51035;DHT22;37062;52.546;13.230;2023-02-04T00:52:40;4.90;99.90
51035;DHT22;37062;52.546;13.230;2023-02-04T00:55:08;4.80;99.90
51035;DHT22;37062;52.546;13.230;2023-02-04T00:57:38;4.80;99.90
51035;DHT22;37062;52.546;13.230;2023-02-04T01:00:08;4.80;99.90
51035;DHT22;37062;52.546;13.230;2023-02-04T01:02:38;4.70;99.90
51035;DHT22;37062;52.546;13.230;2023-02-04T01:05:07;4.60;99.90
51035;DHT22;37062;52.546;13.230;2023-02-04T01:07:36;4.60;99.90
51035;DHT22;37062;52.546;13.230;2023-02-04T01:10:05;4.60;99.90
51035;DHT22;37062;52.546;13.230;2023-02-04T01:12:33;4.50;99.90
51035;DHT22;37062;52.546;13.230;2023-02-04T01:15:02;4.40;99.90
51035;DHT22;37062;52.546;13.230;2023-02-04T01:17:30;4.40;99.90
51035;DHT22;37062;52.546;13.230;2023-02-04T01:20:00;4.50;99.90
51035;DHT22;37062;52.546;13.230;2023-02-04T01:22:28;4.50;99.90
51035;DHT22;37062;52.546;13.230;2023-02-04T01:24:56;4.40;99.90
51035;DHT22;37062;52.546;13.230;2023-02-04T01:27:40;4.50;99.90
51035;DHT22;37062;52.546;13.230;2023-02-04T01:30:09;4.50;99.90
51035;DHT22;37062;52.546;13.230;2023-02-04T01:32:38;4.40;99.90
51035;DHT22;37062;52.546;13.230;2023-02-04T01:35:08;4.50;99.90
51035;DHT22;37062;52.546;13.230;2023-02-04T01:37:37;4.50;99.90
51035;DHT22;37062;52.546;13.230;2023-02-04T01:40:06;4.50;99.90
51035;DHT22;37062;52.546;13.230;2023-02-04T01:42:35;4.40;99.90
51035;DHT22;37062;52.546;13.230;2023-02-04T01:45:03;4.30;99.90
51035;DHT22;37062;52.546;13.230;2023-02-04T01:47:34;4.20;99.90
51035;DHT22;37062;52.546;13.230;2023-02-04T01:50:05;4.20;99.90
51035;DHT22;37062;52.546;13.230;2023-02-04T01:52:37;4.30;99.90
51035;DHT22;37062;52.546;13.230;2023-02-04T01:55:11;4.30;99.90
51035;DHT22;37062;52.546;13.230;2023-02-04T01:57:40;4.20;99.90
51035;DHT22;37062;52.546;13.230;2023-02-04T02:00:14;4.10;99.90
51035;DHT22;37062;52.546;13.230;2023-02-04T02:02:45;4.20;99.90
51035;DHT22;37062;52.546;13.230;2023-02-04T02:05:18;4.30;99.90
51035;DHT22;37062;52.546;13.230;2023-02-04T02:07:49;4.20;99.90
51035;DHT22;37062;52.546;13.230;2023-02-04T02:10:18;4.10;99.90
51035;DHT22;37062;52.546;13.230;2023-02-04T02:12:47;4.10;99.90
51035;DHT22;37062;52.546;13.230;2023-02-04T02:15:16;4.10;99.90
51035;DHT22;37062;52.546;13.230;2023-02-04T02:17:45;4.10;99.90
51035;DHT22;37062;52.546;13.230;2023-02-04T02:22:52;4.00;99.90
51035;DHT22;37062;52.546;13.230;2023-02-04T02:25:24;4.00;99.90
51035;DHT22;37062;52.546;13.230;2023-02-04T02:27:52;3.90;99.90
51035;DHT22;37062;52.546;13.230;2023-02-04T02:30:21;4.00;99.90
51035;DHT22;37062;52.546;13.230;2023-02-04T02:32:49;4.00;99.90
51035;DHT22;37062;52.546;13.230;2023-02-04T02:35:19;4.00;99.90
51035;DHT22;37062;52.546;13.230;2023-02-04T02:37:48;4.00;99.90
51035;DHT22;37062;52.546;13.230;2023-02-04T02:40:17;4.00;99.90
51035;DHT22;37062;52.546;13.230;2023-02-04T02:42:48;4.00;99.90
51035;DHT22;37062;52.546;13.230;2023-02-04T02:45:21;3.90;99.90
51035;DHT22;37062;52.546;13.230;2023-02-04T02:47:51;3.90;99.90
51035;DHT22;37062;52.546;13.230;2023-02-04T02:50:21;3.80;99.90
51035;DHT22;37062;52.546;13.230;2023-02-04T02:52:51;3.80;99.90
51035;DHT22;37062;52.546;13.230;2023-02-04T02:55:23;3.80;99.90
51035;DHT22;37062;52.546;13.230;2023-02-04T02:57:54;3.80;99.90
51035;DHT22;37062;52.546;13.230;2023-02-04T03:00:25;3.80;99.90
51035;DHT22;37062;52.546;13.230;2023-02-04T03:02:58;3.80;99.90
51035;DHT22;37062;52.546;13.230;2023-02-04T03:05:29;3.70;99.90
51035;DHT22;37062;52.546;13.230;2023-02-04T03:07:59;3.60;99.90
51035;DHT22;37062;52.546;13.230;2023-02-04T03:10:27;3.50;99.90
51035;DHT22;37062;52.546;13.230;2023-02-04T03:12:58;3.60;99.90
51035;DHT22;37062;52.546;13.230;2023-02-04T03:15:27;3.60;99.90
51035;DHT22;37062;52.546;13.230;2023-02-04T03:17:56;3.60;99.90
51035;DHT22;37062;52.546;13.230;2023-02-04T03:20:26;3.50;99.90
51035;DHT22;37062;52.546;13.230;2023-02-04T03:22:57;3.50;99.90
51035;DHT22;37062;52.546;13.230;2023-02-04T03:25:26;3.50;99.90
51035;DHT22;37062;52.546;13.230;2023-02-04T03:27:58;3.60;99.90
51035;DHT22;37062;52.546;13.230;2023-02-04T03:30:26;3.60;99.90
51035;DHT22;37062;52.546;13.230;2023-02-04T03:32:55;3.60;99.90
51035;DHT22;37062;52.546;13.230;2023-02-04T03:35:24;3.60;99.90
51035;DHT22;37062;52.546;13.230;2023-02-04T03:37:52;3.60;99.90
51035;DHT22;37062;52.546;13.230;2023-02-04T03:40:20;3.60;99.90
51035;DHT22;37062;52.546;13.230;2023-02-04T03:42:48;3.60;99.90
51035;DHT22;37062;52.546;13.230;2023-02-04T03:45:18;3.60;99.90
51035;DHT22;37062;52.546;13.230;2023-02-04T03:47:46;3.60;99.90
51035;DHT22;37062;52.546;13.230;2023-02-04T03:50:15;3.60;99.90
51035;DHT22;37062;52.546;13.230;2023-02-04T03:52:43;3.50;99.90
51035;DHT22;37062;52.546;13.230;2023-02-04T03:55:11;3.50;99.90
51035;DHT22;37062;52.546;13.230;2023-02-04T03:57:39;3.50;99.90
51035;DHT22;37062;52.546;13.230;2023-02-04T04:00:09;3.50;99.90
51035;DHT22;37062;52.546;13.230;2023-02-04T04:02:41;3.50;99.90
51035;DHT22;37062;52.546;13.230;2023-02-04T04:05:10;3.40;99.90
51035;DHT22;37062;52.546;13.230;2023-02-04T04:07:38;3.40;99.90
51035;DHT22;37062;52.546;13.230;2023-02-04T04:10:07;3.40;99.90
51035;DHT22;37062;52.546;13.230;2023-02-04T04:12:35;3.40;99.90
51035;DHT22;37062;52.546;13.230;2023-02-04T04:15:04;3.30;99.90
51035;DHT22;37062;52.546;13.230;2023-02-04T04:17:32;3.20;99.90
51035;DHT22;37062;52.546;13.230;2023-02-04T04:20:02;3.20;99.90
51035;DHT22;37062;52.546;13.230;2023-02-04T04:22:30;3.20;99.90
51035;DHT22;37062;52.546;13.230;2023-02-04T04:24:59;3.20;99.90
51035;DHT22;37062;52.546;13.230;2023-02-04T04:27:27;3.20;99.90
51035;DHT22;37062;52.546;13.230;2023-02-04T04:29:56;3.20;99.90
51035;DHT22;37062;52.546;13.230;2023-02-04T04:32:24;3.20;99.90
51035;DHT22;37062;52.546;13.230;2023-02-04T04:34:52;3.20;99.90
51035;DHT22;37062;52.546;13.230;2023-02-04T04:37:24;3.20;99.90
51035;DHT22;37062;52.546;13.230;2023-02-04T04:39:52;3.20;99.90
51035;DHT22;37062;52.546;13.230;2023-02-04T04:42:20;3.20;99.90
51035;DHT22;37062;52.546;13.230;2023-02-04T04:44:48;3.20;99.90
51035;DHT22;37062;52.546;13.230;2023-02-04T04:47:16;3.10;99.90
51035;DHT22;37062;52.546;13.230;2023-02-04T04:49:44;3.10;99.90
51035;DHT22;37062;52.546;13.230;2023-02-04T04:52:13;3.20;99.90
51035;DHT22;37062;52.546;13.230;2023-02-04T04:54:43;3.20;99.90
51035;DHT22;37062;52.546;13.230;2023-02-04T04:57:11;3.20;99.90
51035;DHT22;37062;52.546;13.230;2023-02-04T04:59:39;3.30;99.90
51035;DHT22;37062;52.546;13.230;2023-02-04T05:02:07;3.40;99.90
51035;DHT22;37062;52.546;13.230;2023-02-04T05:04:35;3.40;99.90
51035;DHT22;37062;52.546;13.230;2023-02-04T05:07:03;3.40;99.90
51035;DHT22;37062;52.546;13.230;2023-02-04T05:09:31;3.40;99.90
51035;DHT22;37062;52.546;13.230;2023-02-04T05:12:01;3.40;99.90
51035;DHT22;37062;52.546;13.230;2023-02-04T05:14:29;3.30;99.90
51035;DHT22;37062;52.546;13.230;2023-02-04T05:16:57;3.40;99.90
51035;DHT22;37062;52.546;13.230;2023-02-04T05:19:26;3.40;99.90
51035;DHT22;37062;52.546;13.230;2023-02-04T05:21:54;3.30;99.90
51035;DHT22;37062;52.546;13.230;2023-02-04T05:24:23;3.30;99.90
51035;DHT22;37062;52.546;13.230;2023-02-04T05:26:51;3.30;99.90
51035;DHT22;37062;52.546;13.230;2023-02-04T05:29:20;3.40;99.90
51035;DHT22;37062;52.546;13.230;2023-02-04T05:31:49;3.40;99.90
51035;DHT22;37062;52.546;13.230;2023-02-04T05:34:17;3.40;99.90
51035;DHT22;37062;52.546;13.230;2023-02-04T05:36:45;3.40;99.90
51035;DHT22;37062;52.546;13.230;2023-02-04T05:39:13;3.40;99.90
51035;DHT22;37062;52.546;13.230;2023-02-04T05:41:41;3.30;99.90
51035;DHT22;37062;52.546;13.230;2023-02-04T05:44:09;3.30;99.90
51035;DHT22;37062;52.546;13.230;2023-02-04T05:46:39;3.20;99.90
51035;DHT22;37062;52.546;13.230;2023-02-04T05:49:07;3.10;99.90
51035;DHT22;37062;52.546;13.230;2023-02-04T05:51:35;3.10;99.90
51035;DHT22;37062;52.546;13.230;2023-02-04T05:54:03;3.00;99.90
51035;DHT22;37062;52.546;13.230;2023-02-04T05:56:31;2.90;99.90
51035;DHT22;37062;52.546;13.230;2023-02-04T05:58:59;2.80;99.90
51035;DHT22;37062;52.546;13.230;2023-02-04T06:01:27;2.80;99.90
51035;DHT22;37062;52.546;13.230;2023-02-04T06:03:57;2.70;99.90
51035;DHT22;37062;52.546;13.230;2023-02-04T06:06:25;2.70;99.90
51035;DHT22;37062;52.546;13.230;2023-02-04T06:08:53;2.70;99.90
51035;DHT22;37062;52.546;13.230;2023-02-04T06:11:21;2.70;99.90
51035;DHT22;37062;52.546;13.230;2023-02-04T06:13:50;2.70;99.90
51035;DHT22;37062;52.546;13.230;2023-02-04T06:16:18;2.80;99.90
51035;DHT22;37062;52.546;13.230;2023-02-04T06:18:46;2.80;99.90
51035;DHT22;37062;52.546;13.230;2023-02-04T06:21:15;2.80;99.90
51035;DHT22;37062;52.546;13.230;2023-02-04T06:23:44;2.80;99.90
51035;DHT22;37062;52.546;13.230;2023-02-04T06:26:12;2.80;99.90
51035;DHT22;37062;52.546;13.230;2023-02-04T06:28:40;2.80;99.90
51035;DHT22;37062;52.546;13.230;2023-02-04T06:31:09;2.70;99.90
51035;DHT22;37062;52.546;13.230;2023-02-04T06:33:37;2.70;99.90
51035;DHT22;37062;52.546;13.230;2023-02-04T06:36:06;2.80;99.90
51035;DHT22;37062;52.546;13.230;2023-02-04T06:38:35;2.80;99.90
51035;DHT22;37062;52.546;13.230;2023-02-04T06:41:04;2.80;99.90
51035;DHT22;37062;52.546;13.230;2023-02-04T06:43:32;2.80;99.90
51035;DHT22;37062;52.546;13.230;2023-02-04T06:46:00;2.80;99.90
51035;DHT22;37062;52.546;13.230;2023-02-04T06:48:28;2.80;99.90
51035;DHT22;37062;52.546;13.230;2023-02-04T06:50:57;2.70;99.90
51035;DHT22;37062;52.546;13.230;2023-02-04T06:53:25;2.70;99.90
51035;DHT22;37062;52.546;13.230;2023-02-04T06:55:54;2.70;99.90
51035;DHT22;37062;52.546;13.230;2023-02-04T06:58:22;2.80;99.90
51035;DHT22;37062;52.546;13.230;2023-02-04T07:00:50;2.80;99.90
51035;DHT22;37062;52.546;13.230;2023-02-04T07:03:18;2.80;99.90
51035;DHT22;37062;52.546;13.230;2023-02-04T07:05:47;2.70;99.90
51035;DHT22;37062;52.546;13.230;2023-02-04T07:08:15;2.70;99.90
51035;DHT22;37062;52.546;13.230;2023-02-04T07:10:43;2.70;99.90
51035;DHT22;37062;52.546;13.230;2023-02-04T07:13:13;2.80;99.90
51035;DHT22;37062;52.546;13.230;2023-02-04T07:15:41;3.00;99.90
51035;DHT22;37062;52.546;13.230;2023-02-04T07:18:09;3.30;99.90
51035;DHT22;37062;52.546;13.230;2023-02-04T07:20:37;3.70;99.90
51035;DHT22;37062;52.546;13.230;2023-02-04T07:23:06;4.10;99.90
51035;DHT22;37062;52.546;13.230;2023-02-04T07:25:34;4.50;99.90
51035;DHT22;37062;52.546;13.230;2023-02-04T07:28:02;4.90;99.90
51035;DHT22;37062;52.546;13.230;2023-02-04T07:30:32;5.20;99.90
51035;DHT22;37062;52.546;13.230;2023-02-04T07:33:01;5.50;99.90
51035;DHT22;37062;52.546;13.230;2023-02-04T07:35:29;5.70;99.90
51035;DHT22;37062;52.546;13.230;2023-02-04T07:37:57;5.90;99.90
51035;DHT22;37062;52.546;13.230;2023-02-04T07:40:25;6.30;99.90
51035;DHT22;37062;52.546;13.230;2023-02-04T07:42:53;6.50;99.90
51035;DHT22;37062;52.546;13.230;2023-02-04T07:45:22;6.70;99.90
51035;DHT22;37062;52.546;13.230;2023-02-04T07:47:52;6.90;99.90
51035;DHT22;37062;52.546;13.230;2023-02-04T07:50:20;6.90;99.90
51035;DHT22;37062;52.546;13.230;2023-02-04T07:52:48;6.80;99.90
51035;DHT22;37062;52.546;13.230;2023-02-04T07:55:16;6.80;99.90
51035;DHT22;37062;52.546;13.230;2023-02-04T07:57:45;7.00;99.90
51035;DHT22;37062;52.546;13.230;2023-02-04T08:00:14;7.20;99.90
51035;DHT22;37062;52.546;13.230;2023-02-04T08:02:42;7.30;99.90
51035;DHT22;37062;52.546;13.230;2023-02-04T08:05:11;7.30;99.90
51035;DHT22;37062;52.546;13.230;2023-02-04T08:07:40;7.10;99.90
51035;DHT22;37062;52.546;13.230;2023-02-04T08:10:09;7.00;99.90
51035;DHT22;37062;52.546;13.230;2023-02-04T08:12:37;7.00;99.90
51035;DHT22;37062;52.546;13.230;2023-02-04T08:15:06;6.90;99.90
51035;DHT22;37062;52.546;13.230;2023-02-04T08:17:34;6.90;99.90
51035;DHT22;37062;52.546;13.230;2023-02-04T08:20:03;6.80;99.90
51035;DHT22;37062;52.546;13.230;2023-02-04T08:22:33;6.80;99.90
51035;DHT22;37062;52.546;13.230;2023-02-04T08:25:02;6.90;99.90
51035;DHT22;37062;52.546;13.230;2023-02-04T08:27:31;7.00;99.90
51035;DHT22;37062;52.546;13.230;2023-02-04T08:29:59;6.90;99.90
51035;DHT22;37062;52.546;13.230;2023-02-04T08:32:27;7.00;99.90
51035;DHT22;37062;52.546;13.230;2023-02-04T08:34:56;7.00;99.90
51035;DHT22;37062;52.546;13.230;2023-02-04T08:37:25;7.10;99.90
51035;DHT22;37062;52.546;13.230;2023-02-04T08:39:54;7.00;99.90
51035;DHT22;37062;52.546;13.230;2023-02-04T08:42:23;7.00;99.90
51035;DHT22;37062;52.546;13.230;2023-02-04T08:44:51;7.00;99.90
51035;DHT22;37062;52.546;13.230;2023-02-04T08:47:19;7.10;99.90
51035;DHT22;37062;52.546;13.230;2023-02-04T08:49:47;7.10;99.90
51035;DHT22;37062;52.546;13.230;2023-02-04T08:52:15;7.20;99.90
51035;DHT22;37062;52.546;13.230;2023-02-04T08:54:43;7.20;99.90
51035;DHT22;37062;52.546;13.230;2023-02-04T08:57:13;7.10;99.90
51035;DHT22;37062;52.546;13.230;2023-02-04T08:59:41;6.80;99.90
51035;DHT22;37062;52.546;13.230;2023-02-04T09:02:11;6.70;99.90
51035;DHT22;37062;52.546;13.230;2023-02-04T09:04:39;6.50;99.90
51035;DHT22;37062;52.546;13.230;2023-02-04T09:07:07;6.30;99.90
51035;DHT22;37062;52.546;13.230;2023-02-04T09:09:35;6.30;99.90
51035;DHT22;37062;52.546;13.230;2023-02-04T09:12:03;6.10;99.90
51035;DHT22;37062;52.546;13.230;2023-02-04T09:14:33;5.90;99.90
51035;DHT22;37062;52.546;13.230;2023-02-04T09:17:01;5.80;99.90
51035;DHT22;37062;52.546;13.230;2023-02-04T09:19:31;5.90;99.90
51035;DHT22;37062;52.546;13.230;2023-02-04T09:21:59;6.00;99.90
51035;DHT22;37062;52.546;13.230;2023-02-04T09:24:27;5.80;99.90
51035;DHT22;37062;52.546;13.230;2023-02-04T09:26:55;5.70;99.90
51035;DHT22;37062;52.546;13.230;2023-02-04T09:29:23;5.60;99.90
51035;DHT22;37062;52.546;13.230;2023-02-04T09:31:53;5.60;99.90
51035;DHT22;37062;52.546;13.230;2023-02-04T09:34:21;5.70;99.90
51035;DHT22;37062;52.546;13.230;2023-02-04T09:36:50;5.80;99.90
51035;DHT22;37062;52.546;13.230;2023-02-04T09:39:18;5.80;99.90
51035;DHT22;37062;52.546;13.230;2023-02-04T09:41:46;5.80;99.90
51035;DHT22;37062;52.546;13.230;2023-02-04T09:44:16;5.90;99.90
51035;DHT22;37062;52.546;13.230;2023-02-04T09:46:47;5.90;99.90
51035;DHT22;37062;52.546;13.230;2023-02-04T09:49:17;6.00;99.90
51035;DHT22;37062;52.546;13.230;2023-02-04T09:51:46;6.00;99.90
51035;DHT22;37062;52.546;13.230;2023-02-04T09:54:17;6.00;99.90
51035;DHT22;37062;52.546;13.230;2023-02-04T09:56:46;5.90;99.90
51035;DHT22;37062;52.546;13.230;2023-02-04T09:59:16;5.90;99.90
51035;DHT22;37062;52.546;13.230;2023-02-04T10:01:47;6.00;99.90
51035;DHT22;37062;52.546;13.230;2023-02-04T10:04:20;6.00;99.90
51035;DHT22;37062;52.546;13.230;2023-02-04T10:06:49;6.00;99.90
51035;DHT22;37062;52.546;13.230;2023-02-04T10:09:18;6.00;99.90
51035;DHT22;37062;52.546;13.230;2023-02-04T10:11:47;6.00;99.90
51035;DHT22;37062;52.546;13.230;2023-02-04T10:14:18;6.10;99.90
51035;DHT22;37062;52.546;13.230;2023-02-04T10:16:50;6.20;99.90
51035;DHT22;37062;52.546;13.230;2023-02-04T10:19:21;6.30;99.90
51035;DHT22;37062;52.546;13.230;2023-02-04T10:21:49;6.30;99.90
51035;DHT22;37062;52.546;13.230;2023-02-04T10:24:20;6.30;99.90
51035;DHT22;37062;52.546;13.230;2023-02-04T10:26:52;6.20;99.90
51035;DHT22;37062;52.546;13.230;2023-02-04T10:29:23;6.20;99.90
51035;DHT22;37062;52.546;13.230;2023-02-04T10:31:52;6.30;99.90
51035;DHT22;37062;52.546;13.230;2023-02-04T10:34:23;6.40;99.90
51035;DHT22;37062;52.546;13.230;2023-02-04T10:36:53;6.50;99.90
51035;DHT22;37062;52.546;13.230;2023-02-04T10:39:24;6.40;99.90
51035;DHT22;37062;52.546;13.230;2023-02-04T10:41:54;6.40;99.90
51035;DHT22;37062;52.546;13.230;2023-02-04T10:44:26;6.40;99.90
51035;DHT22;37062;52.546;13.230;2023-02-04T10:46:58;6.30;99.90
51035;DHT22;37062;52.546;13.230;2023-02-04T10:49:28;6.40;99.90
51035;DHT22;37062;52.546;13.230;2023-02-04T10:51:56;6.40;99.90
51035;DHT22;37062;52.546;13.230;2023-02-04T10:54:32;6.40;99.90
51035;DHT22;37062;52.546;13.230;2023-02-04T10:57:10;6.50;99.90
51035;DHT22;37062;52.546;13.230;2023-02-04T10:59:41;6.60;99.90
51035;DHT22;37062;52.546;13.230;2023-02-04T11:02:35;6.60;99.90
51035;DHT22;37062;52.546;13.230;2023-02-04T11:05:11;6.80;99.90
51035;DHT22;37062;52.546;13.230;2023-02-04T11:07:40;6.70;99.90
51035;DHT22;37062;52.546;13.230;2023-02-04T11:10:13;6.70;99.90
51035;DHT22;37062;52.546;13.230;2023-02-04T11:12:44;6.80;99.90
51035;DHT22;37062;52.546;13.230;2023-02-04T11:15:39;6.80;99.90
51035;DHT22;37062;52.546;13.230;2023-02-04T11:18:10;6.80;99.90
51035;DHT22;37062;52.546;13.230;2023-02-04T11:20:40;6.70;99.90
51035;DHT22;37062;52.546;13.230;2023-02-04T11:23:16;6.70;99.90
51035;DHT22;37062;52.546;13.230;2023-02-04T11:26:18;6.70;99.90
51035;DHT22;37062;52.546;13.230;2023-02-04T11:28:54;6.80;99.90
51035;DHT22;37062;52.546;13.230;2023-02-04T11:31:29;6.80;99.90
51035;DHT22;37062;52.546;13.230;2023-02-04T11:34:10;6.70;99.90
51035;DHT22;37062;52.546;13.230;2023-02-04T11:37:05;6.60;99.90
51035;DHT22;37062;52.546;13.230;2023-02-04T11:39:40;6.30;99.90
51035;DHT22;37062;52.546;13.230;2023-02-04T11:42:20;6.10;99.90
51035;DHT22;37062;52.546;13.230;2023-02-04T11:44:51;6.10;99.90
51035;DHT22;37062;52.546;13.230;2023-02-04T11:47:21;6.10;99.90
51035;DHT22;37062;52.546;13.230;2023-02-04T11:49:57;6.10;99.90
51035;DHT22;37062;52.546;13.230;2023-02-04T11:52:28;6.10;99.90
51035;DHT22;37062;52.546;13.230;2023-02-04T11:54:58;6.10;99.90
51035;DHT22;37062;52.546;13.230;2023-02-04T11:57:26;6.20;99.90
51035;DHT22;37062;52.546;13.230;2023-02-04T11:59:54;6.20;99.90
51035;DHT22;37062;52.546;13.230;2023-02-04T12:02:24;6.20;99.90
51035;DHT22;37062;52.546;13.230;2023-02-04T12:04:55;6.20;99.90
51035;DHT22;37062;52.546;13.230;2023-02-04T12:07:26;6.10;99.90
51035;DHT22;37062;52.546;13.230;2023-02-04T12:09:56;6.10;99.90
51035;DHT22;37062;52.546;13.230;2023-02-04T12:12:29;6.00;99.90
51035;DHT22;37062;52.546;13.230;2023-02-04T12:15:03;6.00;99.90
51035;DHT22;37062;52.546;13.230;2023-02-04T12:17:35;6.10;99.90
51035;DHT22;37062;52.546;13.230;2023-02-04T12:20:04;6.20;99.90
51035;DHT22;37062;52.546;13.230;2023-02-04T12:22:32;6.30;99.90
51035;DHT22;37062;52.546;13.230;2023-02-04T12:25:02;6.30;99.90
51035;DHT22;37062;52.546;13.230;2023-02-04T12:27:30;6.20;99.90
51035;DHT22;37062;52.546;13.230;2023-02-04T12:29:58;6.30;99.90
51035;DHT22;37062;52.546;13.230;2023-02-04T12:32:26;6.30;99.90
51035;DHT22;37062;52.546;13.230;2023-02-04T12:34:54;6.30;99.90
51035;DHT22;37062;52.546;13.230;2023-02-04T12:37:22;6.30;99.90
51035;DHT22;37062;52.546;13.230;2023-02-04T12:39:50;6.20;99.90
51035;DHT22;37062;52.546;13.230;2023-02-04T12:42:20;6.30;99.90
51035;DHT22;37062;52.546;13.230;2023-02-04T12:44:48;6.40;99.90
51035;DHT22;37062;52.546;13.230;2023-02-04T12:47:16;6.50;99.90
51035;DHT22;37062;52.546;13.230;2023-02-04T12:49:44;6.40;99.90
51035;DHT22;37062;52.546;13.230;2023-02-04T12:52:14;6.20;99.90
51035;DHT22;37062;52.546;13.230;2023-02-04T12:54:42;6.10;99.90
51035;DHT22;37062;52.546;13.230;2023-02-04T12:57:10;6.10;99.90
51035;DHT22;37062;52.546;13.230;2023-02-04T12:59:41;6.20;99.90
51035;DHT22;37062;52.546;13.230;2023-02-04T13:02:09;6.10;99.90
51035;DHT22;37062;52.546;13.230;2023-02-04T13:04:38;6.20;99.90
51035;DHT22;37062;52.546;13.230;2023-02-04T13:07:07;6.20;99.90
51035;DHT22;37062;52.546;13.230;2023-02-04T13:09:35;6.20;99.90
51035;DHT22;37062;52.546;13.230;2023-02-04T13:12:04;6.30;99.90
51035;DHT22;37062;52.546;13.230;2023-02-04T13:14:32;6.30;99.90
51035;DHT22;37062;52.546;13.230;2023-02-04T13:17:01;6.30;99.90
51035;DHT22;37062;52.546;13.230;2023-02-04T13:19:30;6.20;99.90
51035;DHT22;37062;52.546;13.230;2023-02-04T13:21:58;6.20;99.90
51035;DHT22;37062;52.546;13.230;2023-02-04T13:24:27;6.30;99.90
51035;DHT22;37062;52.546;13.230;2023-02-04T13:26:55;6.20;99.90
51035;DHT22;37062;52.546;13.230;2023-02-04T13:29:23;6.10;99.90
51035;DHT22;37062;52.546;13.230;2023-02-04T13:31:52;6.00;99.90
51035;DHT22;37062;52.546;13.230;2023-02-04T13:34:21;6.00;99.90
51035;DHT22;37062;52.546;13.230;2023-02-04T13:36:49;6.00;99.90
51035;DHT22;37062;52.546;13.230;2023-02-04T13:39:18;6.10;99.90
51035;DHT22;37062;52.546;13.230;2023-02-04T13:41:46;6.30;99.90
51035;DHT22;37062;52.546;13.230;2023-02-04T13:44:14;6.30;99.90
51035;DHT22;37062;52.546;13.230;2023-02-04T13:46:42;6.30;99.90
51035;DHT22;37062;52.546;13.230;2023-02-04T13:49:10;6.40;99.90
51035;DHT22;37062;52.546;13.230;2023-02-04T13:51:40;6.50;99.90
51035;DHT22;37062;52.546;13.230;2023-02-04T13:54:08;6.60;99.90
51035;DHT22;37062;52.546;13.230;2023-02-04T13:56:36;6.60;99.90
51035;DHT22;37062;52.546;13.230;2023-02-04T13:59:04;6.50;99.90
51035;DHT22;37062;52.546;13.230;2023-02-04T14:01:32;6.40;99.90
51035;DHT22;37062;52.546;13.230;2023-02-04T14:04:00;6.20;99.90
51035;DHT22;37062;52.546;13.230;2023-02-04T14:06:29;6.20;99.90
51035;DHT22;37062;52.546;13.230;2023-02-04T14:09:03;6.00;99.90
51035;DHT22;37062;52.546;13.230;2023-02-04T14:11:31;5.90;99.90
51035;DHT22;37062;52.546;13.230;2023-02-04T14:13:59;5.90;99.90
51035;DHT22;37062;52.546;13.230;2023-02-04T14:16:27;6.00;99.90
51035;DHT22;37062;52.546;13.230;2023-02-04T14:18:55;6.00;99.90
51035;DHT22;37062;52.546;13.230;2023-02-04T14:21:23;6.10;99.90
51035;DHT22;37062;52.546;13.230;2023-02-04T14:23:51;6.10;99.90
51035;DHT22;37062;52.546;13.230;2023-02-04T14:26:21;6.20;99.90
51035;DHT22;37062;52.546;13.230;2023-02-04T14:28:49;6.20;99.90
51035;DHT22;37062;52.546;13.230;2023-02-04T14:31:18;6.10;99.90
51035;DHT22;37062;52.546;13.230;2023-02-04T14:33:46;6.10;99.90
51035;DHT22;37062;52.546;13.230;2023-02-04T14:36:16;6.10;99.90
51035;DHT22;37062;52.546;13.230;2023-02-04T14:38:44;6.10;99.90
51035;DHT22;37062;52.546;13.230;2023-02-04T14:41:12;6.00;99.90
51035;DHT22;37062;52.546;13.230;2023-02-04T14:43:44;6.00;99.90
51035;DHT22;37062;52.546;13.230;2023-02-04T14:46:12;6.00;99.90
51035;DHT22;37062;52.546;13.230;2023-02-04T14:48:40;6.00;99.90
51035;DHT22;37062;52.546;13.230;2023-02-04T14:51:10;5.90;99.90
51035;DHT22;37062;52.546;13.230;2023-02-04T14:53:39;5.80;99.90
51035;DHT22;37062;52.546;13.230;2023-02-04T14:56:14;5.70;99.90
51035;DHT22;37062;52.546;13.230;2023-02-04T14:58:43;5.60;99.90
51035;DHT22;37062;52.546;13.230;2023-02-04T15:01:12;5.50;99.90
51035;DHT22;37062;52.546;13.230;2023-02-04T15:03:40;5.50;99.90
51035;DHT22;37062;52.546;13.230;2023-02-04T15:06:08;5.50;99.90
51035;DHT22;37062;52.546;13.230;2023-02-04T15:08:36;5.50;99.90
51035;DHT22;37062;52.546;13.230;2023-02-04T15:11:04;5.40;99.90
51035;DHT22;37062;52.546;13.230;2023-02-04T15:13:32;5.40;99.90
51035;DHT22;37062;52.546;13.230;2023-02-04T15:16:02;5.40;99.90
51035;DHT22;37062;52.546;13.230;2023-02-04T15:18:32;5.30;99.90
51035;DHT22;37062;52.546;13.230;2023-02-04T15:21:00;5.30;99.90
51035;DHT22;37062;52.546;13.230;2023-02-04T15:23:29;5.30;99.90
51035;DHT22;37062;52.546;13.230;2023-02-04T15:25:57;5.20;99.90
51035;DHT22;37062;52.546;13.230;2023-02-04T15:28:27;5.30;99.90
51035;DHT22;37062;52.546;13.230;2023-02-04T15:30:57;5.40;99.90
51035;DHT22;37062;52.546;13.230;2023-02-04T15:33:27;5.40;99.90
51035;DHT22;37062;52.546;13.230;2023-02-04T15:35:55;5.50;99.90
51035;DHT22;37062;52.546;13.230;2023-02-04T15:38:23;5.30;99.90
51035;DHT22;37062;52.546;13.230;2023-02-04T15:40:51;5.30;99.90
51035;DHT22;37062;52.546;13.230;2023-02-04T15:43:19;5.30;99.90
51035;DHT22;37062;52.546;13.230;2023-02-04T15:45:47;5.20;99.90